Time;durP1;ratioP1;P1;durP2;ratioP2;P2;SDS_P1;SDS_P2;PMS_P1;PMS_P2;Temp;Humidity;BMP_temperature;BMP_pressure;BME280_temperature;BME280_humidity;BME280_pressure;Samples;Min_cycle;Max_cycle;Signal;HPM_P1;HPM_P2
2023/06/03 00:00:16;;;;;;;11.93;4.97;;;;;;;14.94;62.29;100349.56;5053509;28;20409;-76
2023/06/03 00:02:41;;;;;;;15.52;4.90;;;;;;;14.97;62.06;100346.25;5054336;28;20032;-75
2023/06/03 00:05:07;;;;;;;10.65;4.70;;;;;;;14.73;63.17;100355.06;5052943;28;20029;-75
2023/06/03 00:07:32;;;;;;;16.20;6.32;;;;;;;14.71;63.43;100352.59;5051517;28;20036;-75
2023/06/03 00:09:59;;;;;;;17.80;5.87;;;;;;;14.64;63.54;100354.00;5053594;28;20041;-76
2023/06/03 00:12:24;;;;;;;16.30;5.43;;;;;;;14.50;63.58;100357.34;5054052;28;20285;-75
2023/06/03 00:14:49;;;;;;;15.73;6.70;;;;;;;14.46;63.92;100357.03;5053911;28;20047;-75
2023/06/03 00:17:15;;;;;;;12.38;5.65;;;;;;;14.47;64.05;100357.88;5053824;28;20763;-76
2023/06/03 00:19:41;;;;;;;14.48;5.93;;;;;;;14.39;64.56;100350.19;5053364;28;20040;-76
2023/06/03 00:22:07;;;;;;;17.83;5.47;;;;;;;14.32;64.55;100356.78;5053585;28;20064;-76
2023/06/03 00:24:32;;;;;;;11.35;5.95;;;;;;;14.25;64.61;100361.75;5053991;28;20036;-75
2023/06/03 00:26:58;;;;;;;13.90;5.78;;;;;;;14.17;65.07;100357.63;5054157;28;20028;-75
2023/06/03 00:29:24;;;;;;;15.82;6.32;;;;;;;14.19;65.08;100363.66;5053207;28;20107;-76
2023/06/03 00:31:50;;;;;;;15.20;5.93;;;;;;;14.27;65.18;100376.00;5053458;28;20037;-76
2023/06/03 00:34:15;;;;;;;15.45;7.00;;;;;;;14.20;65.38;100372.69;5053299;28;20040;-76
2023/06/03 00:36:41;;;;;;;15.55;6.88;;;;;;;14.21;65.17;100372.44;5053346;28;20061;-76
2023/06/03 00:39:07;;;;;;;10.95;6.32;;;;;;;14.12;65.25;100363.94;5052625;28;20036;-76
2023/06/03 00:41:32;;;;;;;10.10;6.00;;;;;;;14.27;65.13;100365.03;5053451;28;20048;-76
2023/06/03 00:43:57;;;;;;;11.60;5.15;;;;;;;14.33;64.57;100369.41;5053291;28;20036;-76
2023/06/03 00:46:23;;;;;;;15.17;5.47;;;;;;;14.23;65.60;100359.28;5053547;28;20036;-76
2023/06/03 00:48:50;;;;;;;13.20;4.88;;;;;;;14.38;65.45;100354.84;5052625;28;20261;-76
2023/06/03 00:51:16;;;;;;;14.20;4.60;;;;;;;14.45;65.10;100357.31;5052885;28;20566;-76
2023/06/03 00:53:42;;;;;;;8.82;4.35;;;;;;;14.49;64.85;100350.19;5053440;28;20028;-76
2023/06/03 00:56:07;;;;;;;14.73;5.85;;;;;;;14.62;64.42;100353.47;5053030;28;20037;-76
2023/06/03 00:58:32;;;;;;;8.32;4.72;;;;;;;14.58;64.14;100359.47;5052930;28;20569;-76
2023/06/03 01:00:58;;;;;;;11.18;5.07;;;;;;;14.50;64.91;100357.34;5053325;28;20033;-76
2023/06/03 01:03:23;;;;;;;12.68;4.93;;;;;;;14.59;64.68;100349.34;5053127;28;20737;-76
2023/06/03 01:06:02;;;;;;;10.53;4.93;;;;;;;14.58;64.77;100351.25;5053055;28;20157;-76
2023/06/03 01:08:53;;;;;;;12.35;4.63;;;;;;;14.64;64.40;100345.78;5052397;28;20389;-76
2023/06/03 01:11:49;;;;;;;16.70;4.45;;;;;;;14.51;64.55;100347.16;5052938;28;20052;-76
2023/06/03 01:14:25;;;;;;;13.73;5.50;;;;;;;14.49;64.38;100333.72;5052607;28;20033;-76
2023/06/03 01:16:52;;;;;;;16.13;6.50;;;;;;;14.34;65.39;100353.75;5053244;28;20079;-77
2023/06/03 01:19:50;;;;;;;10.43;5.25;;;;;;;14.30;65.18;100353.50;5051965;28;20739;-76
2023/06/03 01:22:18;;;;;;;14.20;6.50;;;;;;;14.22;65.64;100356.78;5052393;28;20051;-77
2023/06/03 01:24:44;;;;;;;11.88;6.97;;;;;;;14.24;65.61;100349.09;5052718;28;20167;-76
2023/06/03 01:27:10;;;;;;;15.05;7.00;;;;;;;14.26;65.63;100343.38;5052936;28;20029;-77
2023/06/03 01:29:36;;;;;;;11.27;6.85;;;;;;;14.15;65.75;100342.53;5052566;28;20039;-76
2023/06/03 01:32:02;;;;;;;12.77;5.95;;;;;;;14.15;65.88;100356.25;5052269;28;20499;-77
2023/06/03 01:34:28;;;;;;;17.20;7.47;;;;;;;14.08;65.89;100340.91;5052497;28;20111;-76
2023/06/03 01:36:55;;;;;;;12.35;5.68;;;;;;;14.16;65.65;100341.44;5052843;28;20060;-76
2023/06/03 01:39:20;;;;;;;11.98;7.13;;;;;;;14.06;66.01;100336.78;5052294;28;20040;-76
2023/06/03 01:41:46;;;;;;;13.52;6.75;;;;;;;14.00;66.54;100336.78;5053055;28;20098;-76
2023/06/03 01:44:11;;;;;;;16.40;6.93;;;;;;;13.98;66.72;100338.16;5052524;28;20043;-75
2023/06/03 01:46:37;;;;;;;11.07;5.85;;;;;;;14.05;66.25;100346.94;5053004;28;20021;-75
2023/06/03 01:49:06;;;;;;;14.87;6.53;;;;;;;13.98;66.62;100340.88;5052424;28;20071;-76
2023/06/03 01:51:31;;;;;;;19.67;8.05;;;;;;;14.02;66.49;100347.47;5052609;28;20257;-76
2023/06/03 01:53:56;;;;;;;18.60;6.85;;;;;;;14.07;66.10;100338.44;5052706;28;20036;-76
2023/06/03 01:56:22;;;;;;;11.67;5.77;;;;;;;14.03;66.46;100338.16;5052715;28;20479;-76
2023/06/03 01:58:47;;;;;;;15.23;6.50;;;;;;;14.06;66.57;100340.34;5052422;28;20262;-76
2023/06/03 02:01:13;;;;;;;11.57;5.13;;;;;;;14.04;66.28;100339.78;5052753;28;20413;-76
2023/06/03 02:03:39;;;;;;;12.65;5.65;;;;;;;14.05;66.56;100346.13;5052587;28;20295;-76
2023/06/03 02:06:04;;;;;;;10.48;5.90;;;;;;;14.10;66.32;100349.66;5052061;28;20151;-76
2023/06/03 02:08:30;;;;;;;11.40;5.05;;;;;;;14.17;66.06;100343.91;5051788;28;20039;-76
2023/06/03 02:10:55;;;;;;;11.35;5.20;;;;;;;14.12;66.43;100346.66;5052423;28;20740;-76
2023/06/03 02:13:20;;;;;;;15.37;6.00;;;;;;;14.23;66.00;100347.47;5052313;28;20031;-76
2023/06/03 02:15:45;;;;;;;16.07;5.33;;;;;;;14.25;65.80;100339.78;5052478;28;20667;-76
2023/06/03 02:18:11;;;;;;;11.17;5.13;;;;;;;14.26;65.60;100344.16;5051805;28;20262;-76
2023/06/03 02:20:36;;;;;;;17.90;5.65;;;;;;;14.19;65.77;100343.63;5051966;28;20284;-76
2023/06/03 02:23:02;;;;;;;12.80;5.40;;;;;;;14.17;66.07;100343.91;5052284;28;20402;-76
2023/06/03 02:25:27;;;;;;;19.98;6.90;;;;;;;14.19;66.09;100346.38;5052175;28;20284;-76
2023/06/03 02:27:54;;;;;;;17.10;5.63;;;;;;;14.19;66.02;100349.13;5052146;28;20079;-76
2023/06/03 02:30:20;;;;;;;15.63;6.40;;;;;;;14.16;66.18;100352.41;5052443;28;20719;-76
2023/06/03 02:32:45;;;;;;;10.82;4.53;;;;;;;14.08;66.02;100359.25;5055842;28;20086;-76
2023/06/03 02:35:11;;;;;;;12.05;5.85;;;;;;;14.05;66.33;100357.91;5055487;28;20021;-76
2023/06/03 02:37:36;;;;;;;11.20;4.97;;;;;;;14.04;66.28;100350.75;5055661;28;20033;-76
2023/06/03 02:40:01;;;;;;;13.48;5.75;;;;;;;14.08;66.01;100346.38;5055868;28;20535;-75
2023/06/03 02:42:27;;;;;;;16.73;6.05;;;;;;;13.94;66.12;100348.00;5055758;28;20037;-75
2023/06/03 02:44:52;;;;;;;11.10;6.37;;;;;;;13.85;66.41;100353.22;5055697;28;20086;-75
2023/06/03 02:47:17;;;;;;;12.53;5.77;;;;;;;13.71;67.04;100352.94;5057002;28;20277;-75
2023/06/03 02:49:44;;;;;;;10.50;5.57;;;;;;;13.61;67.42;100351.81;5055329;28;20840;-75
2023/06/03 02:52:09;;;;;;;13.60;5.18;;;;;;;13.58;67.63;100346.88;5055190;28;20266;-74
2023/06/03 02:54:35;;;;;;;12.68;6.15;;;;;;;13.60;67.74;100355.66;5055483;28;20033;-75
2023/06/03 02:57:00;;;;;;;12.75;6.43;;;;;;;13.59;67.72;100354.00;5055587;28;20060;-75
2023/06/03 02:59:26;;;;;;;11.55;5.78;;;;;;;13.63;67.64;100357.00;5054700;28;20025;-75
2023/06/03 03:01:51;;;;;;;16.65;6.25;;;;;;;13.58;67.33;100355.09;5055099;28;20040;-75
2023/06/03 03:04:16;;;;;;;15.87;8.17;;;;;;;13.53;67.37;100355.88;5055065;28;20031;-75
2023/06/03 03:06:41;;;;;;;21.27;9.35;;;;;;;13.48;67.84;100350.41;5055327;28;20253;-75
2023/06/03 03:09:07;;;;;;;15.10;6.90;;;;;;;13.46;68.14;100351.75;5054295;28;20043;-75
2023/06/03 03:11:32;;;;;;;12.77;6.07;;;;;;;13.49;67.84;100362.16;5055060;28;20024;-75
2023/06/03 03:13:58;;;;;;;18.23;8.38;;;;;;;13.58;67.38;100362.50;5055134;28;20029;-75
2023/06/03 03:16:24;;;;;;;9.77;5.07;;;;;;;13.51;67.56;100368.19;5054644;28;20090;-75
2023/06/03 03:18:49;;;;;;;10.57;5.53;;;;;;;13.51;67.68;100362.72;5054310;28;20262;-75
2023/06/03 03:21:15;;;;;;;12.38;6.68;;;;;;;13.61;67.41;100360.03;5054683;28;20059;-75
2023/06/03 03:23:41;;;;;;;10.68;5.60;;;;;;;13.68;66.38;100359.78;5054886;28;20056;-75
2023/06/03 03:26:11;;;;;;;11.73;5.83;;;;;;;13.78;66.08;100364.44;5054955;28;20029;-75
2023/06/03 03:28:37;;;;;;;14.48;6.60;;;;;;;13.74;66.16;100364.19;5054496;28;21491;-75
2023/06/03 03:31:04;;;;;;;11.18;5.30;;;;;;;13.78;65.87;100358.97;5054614;28;20079;-75
2023/06/03 03:33:30;;;;;;;15.77;6.47;;;;;;;13.73;65.65;100367.19;5054683;28;20186;-75
2023/06/03 03:35:55;;;;;;;19.50;8.10;;;;;;;13.68;65.58;100364.44;5054964;28;20084;-75
2023/06/03 03:38:21;;;;;;;12.32;6.13;;;;;;;13.59;65.83;100362.22;5053548;28;20025;-76
2023/06/03 03:40:46;;;;;;;17.67;6.38;;;;;;;13.65;65.78;100366.63;5054702;28;20052;-75
2023/06/03 03:43:17;;;;;;;9.63;4.53;;;;;;;13.73;65.41;100364.47;5054462;28;20734;-75
2023/06/03 03:45:43;;;;;;;8.45;5.22;;;;;;;13.80;65.27;100369.66;5054661;28;20036;-75
2023/06/03 03:48:13;;;;;;;12.73;5.70;;;;;;;13.74;64.56;100364.19;5053821;28;20052;-75
2023/06/03 03:50:42;;;;;;;7.75;4.88;;;;;;;13.79;64.49;100371.56;5054326;28;20397;-75
2023/06/03 03:53:12;;;;;;;16.70;5.95;;;;;;;13.85;64.52;100375.16;5054350;28;20032;-75
2023/06/03 03:55:40;;;;;;;12.48;5.00;;;;;;;13.80;64.61;100355.94;5054703;28;20028;-75
2023/06/03 03:58:28;;;;;;;9.38;4.40;;;;;;;13.81;64.47;100374.06;5053840;28;20025;-75
2023/06/03 04:00:59;;;;;;;16.48;6.90;;;;;;;13.80;64.39;100366.91;5054410;28;20032;-75
2023/06/03 04:03:25;;;;;;;12.18;5.53;;;;;;;13.70;64.51;100376.78;5054457;28;20085;-75
2023/06/03 04:05:51;;;;;;;9.10;4.63;;;;;;;13.70;64.06;100373.19;5054041;28;20048;-75
2023/06/03 04:08:39;;;;;;;14.52;5.22;;;;;;;13.69;63.79;100366.09;5053426;28;20028;-75
2023/06/03 04:11:07;;;;;;;10.38;4.90;;;;;;;13.61;64.30;100376.47;5053815;28;20493;-76
2023/06/03 04:13:38;;;;;;;9.43;3.88;;;;;;;13.69;64.07;100382.53;5053545;28;20478;-76
2023/06/03 04:16:07;;;;;;;7.38;4.30;;;;;;;13.80;63.37;100378.72;5053685;28;20433;-75
2023/06/03 04:18:33;;;;;;;9.70;4.85;;;;;;;13.73;63.29;100367.19;5052084;28;20036;-75
2023/06/03 04:20:59;;;;;;;11.50;5.45;;;;;;;13.73;63.49;100375.41;5053334;28;20051;-75
2023/06/03 04:23:27;;;;;;;10.80;4.95;;;;;;;13.73;63.25;100380.91;5053951;28;20033;-75
2023/06/03 04:25:53;;;;;;;8.00;4.78;;;;;;;13.69;63.50;100383.34;5053154;28;20482;-75
2023/06/03 04:28:18;;;;;;;12.50;5.07;;;;;;;13.77;63.63;100385.53;5053255;28;20048;-75
2023/06/03 04:30:44;;;;;;;14.13;5.72;;;;;;;13.90;63.29;100388.84;5053838;28;20074;-74
2023/06/03 04:33:09;;;;;;;11.65;5.13;;;;;;;13.85;63.50;100391.59;5053347;28;20040;-75
2023/06/03 04:35:34;;;;;;;11.35;4.72;;;;;;;13.89;63.43;100395.44;5053204;28;20033;-75
2023/06/03 04:38:00;;;;;;;10.73;5.53;;;;;;;13.93;63.17;100392.97;5053095;28;20036;-75
2023/06/03 04:40:26;;;;;;;16.67;6.50;;;;;;;13.87;63.36;100395.69;5052341;28;20297;-75
2023/06/03 04:42:52;;;;;;;10.90;4.88;;;;;;;13.88;63.66;100396.53;5053598;28;20037;-75
2023/06/03 04:45:21;;;;;;;10.63;5.18;;;;;;;14.03;63.00;100387.50;5053447;28;20024;-75
2023/06/03 04:47:47;;;;;;;12.35;4.65;;;;;;;14.03;62.59;100382.03;5053422;28;20040;-76
2023/06/03 04:50:17;;;;;;;12.55;4.40;;;;;;;14.10;62.20;100387.22;5052480;28;20051;-75
2023/06/03 04:52:42;;;;;;;8.25;3.45;;;;;;;14.09;61.47;100382.84;5053724;28;20031;-74
2023/06/03 04:55:08;;;;;;;11.27;4.53;;;;;;;14.09;61.69;100388.34;5052389;28;20029;-74
2023/06/03 04:57:37;;;;;;;8.50;3.50;;;;;;;14.15;60.61;100375.44;5053401;28;20032;-75
2023/06/03 05:00:07;;;;;;;9.30;4.10;;;;;;;14.18;60.47;100383.09;5052968;28;20611;-74
2023/06/03 05:02:32;;;;;;;8.63;4.75;;;;;;;14.07;60.82;100383.13;5053405;28;20244;-75
2023/06/03 05:04:57;;;;;;;14.65;4.93;;;;;;;14.20;60.36;100387.22;5052908;28;21324;-74
2023/06/03 05:07:24;;;;;;;10.02;4.07;;;;;;;14.28;60.11;100383.13;5051838;28;20029;-76
2023/06/03 05:09:50;;;;;;;12.15;4.82;;;;;;;14.24;60.31;100382.00;5052667;28;20037;-75
2023/06/03 05:12:18;;;;;;;12.57;4.07;;;;;;;14.25;60.10;100378.19;5052921;28;20024;-75
2023/06/03 05:14:43;;;;;;;11.25;5.00;;;;;;;14.18;60.41;100378.47;5053241;28;20577;-76
2023/06/03 05:17:09;;;;;;;12.50;4.20;;;;;;;14.27;59.48;100373.25;5052921;28;20025;-75
2023/06/03 05:19:34;;;;;;;11.50;5.77;;;;;;;14.36;59.38;100374.34;5052673;28;20033;-75
2023/06/03 05:22:02;;;;;;;10.68;4.43;;;;;;;14.46;59.20;100375.44;5052846;28;20695;-75
2023/06/03 05:24:27;;;;;;;15.38;5.03;;;;;;;14.42;59.38;100371.59;5053218;28;20056;-74
2023/06/03 05:26:52;;;;;;;9.93;4.57;;;;;;;14.45;59.03;100379.25;5053027;28;20067;-75
2023/06/03 05:29:17;;;;;;;12.97;4.00;;;;;;;14.40;58.91;100373.81;5052222;28;20266;-74
2023/06/03 05:31:43;;;;;;;14.97;4.67;;;;;;;14.28;59.83;100376.81;5052951;28;20697;-75
2023/06/03 05:34:10;;;;;;;10.77;4.17;;;;;;;14.34;59.55;100376.53;5052868;28;20270;-76
2023/06/03 05:36:35;;;;;;;9.35;3.80;;;;;;;14.49;58.48;100374.88;5052534;28;20782;-76
2023/06/03 05:39:01;;;;;;;7.03;3.80;;;;;;;14.58;57.80;100375.94;5052113;28;20041;-75
2023/06/03 05:41:26;;;;;;;6.70;2.42;;;;;;;14.50;57.90;100382.03;5052684;28;20378;-75
2023/06/03 05:43:51;;;;;;;12.90;5.13;;;;;;;14.64;57.21;100378.69;5052736;28;20064;-75
2023/06/03 05:46:16;;;;;;;8.43;2.90;;;;;;;14.48;57.03;100376.00;5054430;28;20111;-75
2023/06/03 05:48:43;;;;;;;8.97;3.63;;;;;;;14.60;56.27;100372.94;5052180;28;20347;-75
2023/06/03 05:51:08;;;;;;;6.13;3.28;;;;;;;14.51;57.05;100369.94;5052197;28;20357;-74
2023/06/03 05:53:33;;;;;;;8.23;3.37;;;;;;;14.55;55.88;100376.50;5052758;28;20028;-75
2023/06/03 05:55:58;;;;;;;10.83;3.40;;;;;;;14.54;55.17;100376.81;5052541;28;20285;-74
2023/06/03 05:58:23;;;;;;;11.53;4.40;;;;;;;14.64;55.29;100374.03;5052248;28;20983;-75
2023/06/03 06:00:49;;;;;;;8.57;3.20;;;;;;;14.64;55.91;100373.22;5052537;28;20258;-75
2023/06/03 06:03:15;;;;;;;8.73;3.65;;;;;;;14.76;55.30;100376.47;5052371;28;20257;-75
2023/06/03 06:05:41;;;;;;;7.00;3.40;;;;;;;14.77;55.29;100375.38;5053164;28;20036;-76
2023/06/03 06:08:06;;;;;;;6.47;3.33;;;;;;;14.88;54.68;100375.38;5055474;28;20032;-75
2023/06/03 06:10:32;;;;;;;8.45;3.17;;;;;;;14.90;53.71;100368.50;5056368;28;20116;-74
2023/06/03 06:12:57;;;;;;;7.32;3.05;;;;;;;14.90;53.86;100376.75;5056145;28;20025;-75
2023/06/03 06:15:22;;;;;;;6.47;2.93;;;;;;;14.88;54.01;100380.88;5056222;28;20048;-75
2023/06/03 06:17:47;;;;;;;9.02;4.22;;;;;;;14.89;54.13;100374.28;5056175;28;20502;-75
2023/06/03 06:20:13;;;;;;;7.43;3.00;;;;;;;14.84;54.06;100368.78;5054997;28;20127;-75
2023/06/03 06:22:38;;;;;;;9.18;3.30;;;;;;;14.79;54.33;100373.16;5055893;28;21203;-74
2023/06/03 06:25:08;;;;;;;10.77;3.53;;;;;;;14.89;53.07;100374.28;5055807;28;20043;-74
2023/06/03 06:27:33;;;;;;;8.23;3.03;;;;;;;14.95;53.72;100378.63;5056023;28;20036;-74
2023/06/03 06:29:59;;;;;;;10.88;2.70;;;;;;;14.89;53.31;100380.59;5054983;28;20036;-75
2023/06/03 06:32:25;;;;;;;7.43;2.53;;;;;;;15.02;52.38;100384.66;5055586;28;20037;-77
2023/06/03 06:34:54;;;;;;;5.55;2.13;;;;;;;15.02;52.41;100383.84;5055503;28;20035;-75
2023/06/03 06:37:20;;;;;;;6.60;2.92;;;;;;;15.02;52.20;100383.84;5055067;28;20032;-75
2023/06/03 06:39:52;;;;;;;8.35;2.55;;;;;;;15.19;51.10;100389.00;5055291;28;20821;-75
2023/06/03 06:42:31;;;;;;;6.25;2.53;;;;;;;15.21;51.08;100392.31;5054913;28;20103;-77
2023/06/03 06:44:59;;;;;;;9.63;2.60;;;;;;;15.22;50.91;100385.69;5054572;28;20041;-76
2023/06/03 06:47:32;;;;;;;9.13;2.85;;;;;;;15.26;51.02;100389.53;5055219;28;20453;-75
2023/06/03 06:49:57;;;;;;;5.35;1.35;;;;;;;15.25;51.23;100389.81;5054692;28;20033;-75
2023/06/03 06:52:24;;;;;;;6.60;2.05;;;;;;;15.33;50.00;100391.16;5055214;28;20030;-75
2023/06/03 06:54:50;;;;;;;6.43;1.33;;;;;;;15.42;49.61;100397.69;5055008;28;20426;-76
2023/06/03 06:57:21;;;;;;;3.55;1.38;;;;;;;15.43;49.54;100398.50;5055066;28;20094;-75
2023/06/03 06:59:47;;;;;;;4.15;1.73;;;;;;;15.45;48.89;100390.81;5053429;28;20033;-75
2023/06/03 07:02:12;;;;;;;3.58;1.42;;;;;;;15.43;48.30;100391.09;5055043;28;20039;-75
2023/06/03 07:04:37;;;;;;;3.63;1.40;;;;;;;15.43;47.53;100388.34;5051144;28;20136;-75
2023/06/03 07:07:03;;;;;;;5.22;1.25;;;;;;;15.29;47.48;100396.38;5051272;28;20071;-75
2023/06/03 07:09:28;;;;;;;8.88;1.77;;;;;;;15.32;48.43;100397.72;5049857;28;20050;-76
2023/06/03 07:11:53;;;;;;;4.47;1.70;;;;;;;15.15;47.94;100390.66;5049278;28;20778;-75
2023/06/03 07:14:19;;;;;;;6.83;1.00;;;;;;;15.27;47.75;100399.41;5053271;28;20793;-75
2023/06/03 07:16:46;;;;;;;6.63;1.48;;;;;;;15.36;46.46;100398.81;5052540;28;20373;-75
2023/06/03 07:19:12;;;;;;;4.35;1.45;;;;;;;15.45;46.03;100393.56;5054700;28;20053;-75
2023/06/03 07:21:37;;;;;;;6.07;1.67;;;;;;;15.56;46.44;100394.34;5052482;28;20117;-75
2023/06/03 07:24:03;;;;;;;2.83;0.90;;;;;;;15.57;46.89;100406.97;5053375;28;20266;-75
2023/06/03 07:26:31;;;;;;;10.13;1.05;;;;;;;15.57;46.04;100398.72;5055129;28;20037;-76
2023/06/03 07:28:57;;;;;;;5.15;1.38;;;;;;;15.60;46.42;100398.16;5053780;28;20052;-76
2023/06/03 07:31:22;;;;;;;4.93;1.30;;;;;;;15.75;45.87;100394.47;5054680;28;20500;-75
2023/06/03 07:33:55;;;;;;;2.20;1.15;;;;;;;15.79;45.36;100394.72;5055144;28;20467;-76
2023/06/03 07:36:24;;;;;;;8.18;1.65;;;;;;;15.73;45.26;100394.78;5055116;28;20036;-75
2023/06/03 07:39:06;;;;;;;5.45;1.00;;;;;;;15.73;44.51;100393.94;5054531;28;20066;-74
2023/06/03 07:41:40;;;;;;;4.25;1.83;;;;;;;15.75;44.95;100395.31;5052437;28;20051;-75
2023/06/03 07:44:13;;;;;;;7.25;1.30;;;;;;;15.80;44.72;100404.63;5054550;28;20406;-75
2023/06/03 07:46:44;;;;;;;1.77;0.57;;;;;;;15.88;44.55;100391.09;5054737;28;20502;-76
2023/06/03 07:49:12;;;;;;;2.47;1.02;;;;;;;15.94;44.90;100394.66;5054107;28;20459;-76
2023/06/03 07:51:47;;;;;;;3.78;1.50;;;;;;;15.94;44.82;100391.91;5055058;28;20119;-75
2023/06/03 07:54:14;;;;;;;5.70;1.38;;;;;;;15.95;44.74;100393.53;5054651;28;20107;-75
2023/06/03 07:56:39;;;;;;;2.55;1.05;;;;;;;16.17;44.39;100400.53;5054775;28;20501;-76
2023/06/03 07:59:07;;;;;;;3.08;1.08;;;;;;;16.09;44.19;100393.72;5053850;28;20067;-75
2023/06/03 08:01:33;;;;;;;3.22;1.50;;;;;;;16.31;44.80;100395.19;5054552;28;20028;-75
2023/06/03 08:04:14;;;;;;;2.78;0.85;;;;;;;16.48;44.07;100404.13;5054198;28;20044;-77
2023/06/03 08:06:39;;;;;;;3.75;1.10;;;;;;;16.40;43.31;100402.84;5054318;28;20037;-74
2023/06/03 08:09:05;;;;;;;7.07;1.13;;;;;;;16.53;43.76;100393.09;5053314;28;20059;-76
2023/06/03 08:11:30;;;;;;;1.13;0.60;;;;;;;16.54;43.34;100395.56;5054559;28;20128;-76
2023/06/03 08:13:56;;;;;;;4.53;0.98;;;;;;;16.59;42.78;100393.88;5054123;28;20135;-72
2023/06/03 08:16:21;;;;;;;5.18;0.90;;;;;;;16.65;42.56;100396.28;5053743;28;20044;-74
2023/06/03 08:18:50;;;;;;;2.00;0.90;;;;;;;16.72;43.15;100401.44;5053258;28;20037;-73
2023/06/03 08:21:17;;;;;;;7.50;1.83;;;;;;;16.84;43.09;100390.00;5054029;28;20097;-74
2023/06/03 08:23:42;;;;;;;9.25;1.50;;;;;;;16.95;44.19;100400.91;5053945;28;20036;-73
2023/06/03 08:26:10;;;;;;;2.80;1.00;;;;;;;17.04;43.08;100399.97;5053538;28;20056;-73
2023/06/03 08:28:38;;;;;;;8.10;1.33;;;;;;;17.06;42.17;100390.63;5052859;28;20349;-77
2023/06/03 08:31:04;;;;;;;5.00;0.93;;;;;;;17.10;42.50;100391.69;5054050;28;20040;-77
2023/06/03 08:33:29;;;;;;;3.15;1.35;;;;;;;17.09;42.40;100387.25;5053124;28;20013;-77
2023/06/03 08:35:55;;;;;;;2.92;0.77;;;;;;;17.12;42.57;100394.97;5053401;28;20028;-76
2023/06/03 08:38:20;;;;;;;1.48;0.57;;;;;;;17.32;42.82;100387.56;5051805;28;20044;-77
2023/06/03 08:40:48;;;;;;;3.15;1.20;;;;;;;17.55;42.78;100385.91;5053313;28;20035;-77
2023/06/03 08:43:14;;;;;;;1.88;0.88;;;;;;;17.67;43.39;100390.16;5053087;28;20699;-75
2023/06/03 08:46:02;;;;;;;4.20;1.13;;;;;;;17.69;41.90;100374.13;5053355;28;20104;-77
2023/06/03 08:48:46;;;;;;;3.88;0.88;;;;;;;17.80;41.10;100385.81;5052276;28;20505;-77
2023/06/03 08:51:15;;;;;;;2.83;1.08;;;;;;;17.77;41.51;100376.22;5051788;28;20020;-77
2023/06/03 08:53:47;;;;;;;3.60;1.27;;;;;;;17.79;41.10;100376.72;5053433;28;20032;-76
2023/06/03 08:56:16;;;;;;;1.63;0.50;;;;;;;17.91;41.15;100380.97;5053068;28;20213;-77
2023/06/03 08:58:46;;;;;;;9.18;1.17;;;;;;;17.96;41.36;100375.34;5053064;28;20086;-77
2023/06/03 09:01:13;;;;;;;1.73;0.70;;;;;;;18.11;40.91;100381.75;5053225;28;20426;-77
2023/06/03 09:03:42;;;;;;;6.10;1.73;;;;;;;18.25;40.80;100373.53;5053370;28;20036;-76
2023/06/03 09:06:08;;;;;;;1.63;0.65;;;;;;;18.37;41.55;100378.59;5052943;28;20060;-77
2023/06/03 09:08:35;;;;;;;5.07;1.05;;;;;;;18.54;40.84;100376.09;5052506;28;20093;-77
2023/06/03 09:11:02;;;;;;;13.18;1.23;;;;;;;18.55;39.76;100376.88;5052532;28;20068;-78
2023/06/03 09:13:30;;;;;;;4.85;1.25;;;;;;;18.67;40.63;100370.91;5052670;28;20039;-75
2023/06/03 09:15:56;;;;;;;39.58;2.72;;;;;;;18.64;41.08;100364.03;5052911;28;20077;-76
2023/06/03 09:18:21;;;;;;;4.50;0.93;;;;;;;18.81;40.40;100373.66;5052520;28;20498;-75
2023/06/03 09:20:47;;;;;;;12.52;1.48;;;;;;;18.92;40.56;100379.78;5052955;28;20596;-75
2023/06/03 09:23:13;;;;;;;5.95;1.52;;;;;;;18.94;40.25;100373.94;5052638;28;20064;-75
2023/06/03 09:25:38;;;;;;;5.70;1.08;;;;;;;19.10;40.55;100378.03;5052859;28;20036;-75
2023/06/03 09:28:04;;;;;;;2.78;1.20;;;;;;;19.04;40.10;100375.72;5051074;28;20622;-75
2023/06/03 09:30:33;;;;;;;5.50;1.25;;;;;;;19.21;40.54;100373.16;5052617;28;20023;-75
2023/06/03 09:32:58;;;;;;;6.95;1.17;;;;;;;19.33;39.40;100366.28;5052663;28;20037;-75
2023/06/03 09:35:24;;;;;;;2.75;1.10;;;;;;;19.39;39.29;100364.22;5052864;28;20044;-75
2023/06/03 09:38:04;;;;;;;2.57;0.83;;;;;;;19.45;38.91;100374.84;5052873;28;20037;-75
2023/06/03 09:40:31;;;;;;;2.13;0.77;;;;;;;19.52;40.31;100368.09;5054960;28;20270;-76
2023/06/03 09:42:57;;;;;;;1.73;0.80;;;;;;;19.59;39.71;100374.81;5056497;28;20040;-76
2023/06/03 09:45:27;;;;;;;10.23;1.83;;;;;;;19.66;39.01;100374.41;5056651;28;20540;-76
2023/06/03 09:47:53;;;;;;;2.13;0.90;;;;;;;19.77;38.73;100369.44;5056595;28;20098;-77
2023/06/03 09:50:20;;;;;;;3.70;1.42;;;;;;;19.87;38.43;100371.13;5056577;28;20136;-75
2023/06/03 09:52:45;;;;;;;3.28;1.42;;;;;;;19.90;39.14;100370.53;5056191;28;20032;-76
2023/06/03 09:55:13;;;;;;;6.72;2.15;;;;;;;20.10;39.33;100362.88;5055047;28;20041;-75
2023/06/03 09:57:38;;;;;;;7.78;1.30;;;;;;;20.15;37.76;100371.06;5056685;28;20791;-76
2023/06/03 10:00:07;;;;;;;5.25;0.90;;;;;;;20.10;38.51;100356.53;5054612;28;20040;-76
2023/06/03 10:03:07;;;;;;;2.78;0.85;;;;;;;20.29;37.13;100361.88;5056708;28;20039;-75
2023/06/03 10:05:33;;;;;;;7.40;0.93;;;;;;;20.28;39.48;100358.28;5056547;28;20041;-76
2023/06/03 10:08:00;;;;;;;4.20;1.08;;;;;;;20.37;38.83;100358.34;5056104;28;20040;-76
2023/06/03 10:10:25;;;;;;;2.60;0.95;;;;;;;20.42;37.45;100362.94;5056322;28;20068;-76
2023/06/03 10:12:51;;;;;;;2.97;1.03;;;;;;;20.61;37.81;100357.13;5056253;28;20032;-76
2023/06/03 10:15:36;;;;;;;3.40;1.25;;;;;;;20.59;35.59;100359.41;5056206;28;20032;-76
2023/06/03 10:18:03;;;;;;;5.97;1.52;;;;;;;20.76;37.37;100350.38;5055585;28;20031;-76
2023/06/03 10:20:46;;;;;;;3.38;1.00;;;;;;;20.82;36.82;100362.13;5055976;28;20056;-76
2023/06/03 10:23:11;;;;;;;3.17;1.02;;;;;;;20.83;36.70;100352.66;5056009;28;20033;-76
2023/06/03 10:25:41;;;;;;;11.10;1.73;;;;;;;20.95;36.45;100354.03;5056317;28;20045;-76
2023/06/03 10:28:07;;;;;;;5.45;0.73;;;;;;;20.88;36.43;100354.47;5055322;28;20820;-75
2023/06/03 10:30:34;;;;;;;2.50;1.05;;;;;;;21.08;36.25;100350.31;5055808;28;20025;-76
2023/06/03 10:33:03;;;;;;;4.22;1.17;;;;;;;21.10;37.07;100352.78;5054424;28;20319;-76
2023/06/03 10:35:31;;;;;;;6.50;1.27;;;;;;;21.23;35.88;100356.56;5055937;28;20058;-76
2023/06/03 10:37:58;;;;;;;3.92;1.48;;;;;;;21.19;35.63;100356.41;5055216;28;20044;-76
2023/06/03 10:40:24;;;;;;;5.60;1.17;;;;;;;21.33;34.19;100360.97;5055878;28;20036;-75
2023/06/03 10:42:52;;;;;;;4.53;0.77;;;;;;;21.27;33.56;100353.94;5056082;28;20120;-76
2023/06/03 10:45:18;;;;;;;1.63;0.70;;;;;;;21.26;33.76;100353.13;5055697;28;20045;-76
2023/06/03 10:47:46;;;;;;;3.78;0.73;;;;;;;21.37;34.69;100364.75;5055702;28;20718;-76
2023/06/03 10:50:38;;;;;;;2.67;0.95;;;;;;;21.44;34.10;100358.69;5055069;28;20032;-75
2023/06/03 10:53:18;;;;;;;4.28;0.95;;;;;;;21.62;35.41;100342.09;5054732;28;20043;-75
2023/06/03 10:55:51;;;;;;;3.45;1.30;;;;;;;21.62;32.79;100353.97;5055689;28;20032;-76
2023/06/03 10:58:23;;;;;;;2.65;0.90;;;;;;;21.69;34.38;100356.25;5053075;28;20175;-76
2023/06/03 11:00:58;;;;;;;3.75;1.23;;;;;;;21.63;33.92;100350.06;5054915;28;20725;-76
2023/06/03 11:03:25;;;;;;;8.07;1.23;;;;;;;21.63;33.53;100355.63;5055407;28;20036;-76
2023/06/03 11:05:51;;;;;;;7.97;1.38;;;;;;;21.87;33.16;100350.72;5055268;28;20056;-76
2023/06/03 11:08:54;;;;;;;2.22;0.98;;;;;;;22.04;33.17;100347.94;5054430;28;20029;-76
2023/06/03 11:11:55;;;;;;;4.22;1.05;;;;;;;22.09;30.78;100338.63;5054962;28;20029;-76
2023/06/03 11:14:29;;;;;;;2.13;0.80;;;;;;;22.21;32.14;100339.91;5055102;28;20402;-77
2023/06/03 11:16:58;;;;;;;4.15;1.30;;;;;;;22.38;31.87;100344.59;5053819;28;20068;-78
2023/06/03 11:19:45;;;;;;;2.53;1.05;;;;;;;22.31;30.81;100338.75;5054872;28;20408;-74
2023/06/03 11:22:31;;;;;;;5.53;1.35;;;;;;;22.34;32.23;100346.41;5054953;28;20711;-76
2023/06/03 11:25:00;;;;;;;3.88;1.27;;;;;;;22.41;32.31;100335.63;5054334;28;20090;-75